createdAt,value
2019-05-10T00:00:41.288Z,11.33
2019-05-10T00:01:41.286Z,11.27
2019-05-10T00:02:41.280Z,11.33
2019-05-10T00:03:41.273Z,11.32
2019-05-10T00:04:41.270Z,11.35
2019-05-10T00:05:41.266Z,11.30
2019-05-10T00:06:41.265Z,11.27
2019-05-10T00:07:41.256Z,11.33
2019-05-10T00:08:41.252Z,11.32
2019-05-10T00:09:41.256Z,11.36
2019-05-10T00:10:41.239Z,11.32
2019-05-10T00:11:41.235Z,11.36
2019-05-10T00:12:41.234Z,11.40
2019-05-10T00:13:41.243Z,11.40
2019-05-10T00:14:41.220Z,11.32
2019-05-10T00:15:41.215Z,11.18
2019-05-10T00:16:41.213Z,11.29
2019-05-10T00:17:41.276Z,11.30
2019-05-10T00:18:41.203Z,11.33
2019-05-10T00:19:41.199Z,11.26
2019-05-10T00:20:41.187Z,11.29
2019-05-10T00:21:41.189Z,11.29
2019-05-10T00:22:41.183Z,11.26
2019-05-10T00:23:41.179Z,11.22
2019-05-10T00:24:41.177Z,11.29
2019-05-10T00:25:41.169Z,11.40
2019-05-10T00:26:41.165Z,11.36
2019-05-10T00:27:41.159Z,11.27
2019-05-10T00:28:41.155Z,11.36
2019-05-10T00:29:41.155Z,11.23
2019-05-10T00:30:41.149Z,11.19
2019-05-10T00:31:41.139Z,11.23
2019-05-10T00:32:41.139Z,11.23
2019-05-10T00:33:41.136Z,11.18
2019-05-10T00:34:41.127Z,11.17
2019-05-10T00:35:41.122Z,11.18
2019-05-10T00:36:41.118Z,11.19
2019-05-10T00:37:41.119Z,11.19
2019-05-10T00:38:41.106Z,11.19
2019-05-10T00:39:41.102Z,11.23
2019-05-10T00:40:41.100Z,11.22
2019-05-10T00:41:41.095Z,11.22
2019-05-10T00:42:41.093Z,11.14
2019-05-10T00:43:41.093Z,11.12
2019-05-10T00:44:41.080Z,11.15
2019-05-10T00:45:41.076Z,11.25
2019-05-10T00:46:41.072Z,11.22
2019-05-10T00:47:41.068Z,11.22
2019-05-10T00:48:41.060Z,11.25
2019-05-10T00:49:41.058Z,11.30
2019-05-10T00:50:41.050Z,11.32
2019-05-10T00:51:41.051Z,11.30
2019-05-10T00:52:41.041Z,11.27
2019-05-10T00:53:41.035Z,11.35
2019-05-10T00:54:41.034Z,11.33
2019-05-10T00:55:41.027Z,11.35
2019-05-10T00:56:41.024Z,11.35
2019-05-10T00:57:41.019Z,11.33
2019-05-10T00:58:41.014Z,11.40
2019-05-10T00:59:41.007Z,11.33
2019-05-10T01:00:41.003Z,11.41
2019-05-10T01:01:41.000Z,11.43
2019-05-10T01:02:40.995Z,11.45
2019-05-10T01:03:40.987Z,11.48
2019-05-10T01:04:40.983Z,11.41
2019-05-10T01:05:40.985Z,11.47
2019-05-10T01:06:40.977Z,11.40
2019-05-10T01:07:40.968Z,11.51
2019-05-10T01:08:40.965Z,11.43
2019-05-10T01:09:40.961Z,11.43
2019-05-10T01:10:40.954Z,11.54
2019-05-10T01:11:40.953Z,11.52
2019-05-10T01:12:40.945Z,11.52
2019-05-10T01:13:40.946Z,11.51
2019-05-10T01:14:40.938Z,11.62
2019-05-10T01:15:40.931Z,11.55
2019-05-10T01:16:40.927Z,11.54
2019-05-10T01:17:40.927Z,11.57
2019-05-10T01:18:40.919Z,11.55
2019-05-10T01:19:40.912Z,11.52
2019-05-10T01:20:40.908Z,11.66
2019-05-10T01:21:40.902Z,11.60
2019-05-10T01:22:40.898Z,11.52
2019-05-10T01:23:40.903Z,11.52
2019-05-10T01:24:40.892Z,11.54
2019-05-10T01:25:40.883Z,11.55
2019-05-10T01:26:40.879Z,11.57
2019-05-10T01:27:40.874Z,11.55
2019-05-10T01:28:40.875Z,11.51
2019-05-10T01:29:40.865Z,11.54
2019-05-10T01:30:40.862Z,11.59
2019-05-10T01:31:40.860Z,11.52
2019-05-10T01:32:40.853Z,11.66
2019-05-10T01:33:40.847Z,11.60
2019-05-10T01:34:40.843Z,11.65
2019-05-10T01:35:40.837Z,11.73
2019-05-10T01:36:40.831Z,11.66
2019-05-10T01:37:40.828Z,11.68
2019-05-10T01:38:40.821Z,11.70
2019-05-10T01:39:40.817Z,11.72
2019-05-10T01:40:40.813Z,11.69
2019-05-10T01:41:40.809Z,11.77
2019-05-10T01:42:40.804Z,11.78
2019-05-10T01:43:40.800Z,11.80
2019-05-10T01:44:40.795Z,11.81
2019-05-10T01:45:40.792Z,11.80
2019-05-10T01:46:40.786Z,11.70
2019-05-10T01:47:40.788Z,11.75
2019-05-10T01:48:40.776Z,11.75
2019-05-10T01:49:40.773Z,11.81
2019-05-10T01:50:40.770Z,11.75
2019-05-10T01:51:40.762Z,11.77
2019-05-10T01:52:40.764Z,11.73
2019-05-10T01:53:40.759Z,11.73
2019-05-10T01:54:40.750Z,11.77
2019-05-10T01:55:51.327Z,11.75
2019-05-10T01:56:40.741Z,11.72
2019-05-10T01:57:40.739Z,11.77
2019-05-10T01:58:40.734Z,11.66
2019-05-10T01:59:40.731Z,11.80
2019-05-10T02:00:40.724Z,11.66
2019-05-10T02:01:40.727Z,11.75
2019-05-10T02:02:40.715Z,11.86
2019-05-10T02:03:40.710Z,11.83
2019-05-10T02:04:40.704Z,11.80
2019-05-10T02:05:40.699Z,11.87
2019-05-10T02:06:40.699Z,11.87
2019-05-10T02:07:40.690Z,11.86
2019-05-10T02:08:40.686Z,11.99
2019-05-10T02:09:40.687Z,11.94
2019-05-10T02:10:40.676Z,11.95
2019-05-10T02:11:40.672Z,12.00
2019-05-10T02:12:40.668Z,12.03
2019-05-10T02:13:40.665Z,11.87
2019-05-10T02:14:40.659Z,11.99
2019-05-10T02:15:40.653Z,12.06
2019-05-10T02:16:40.649Z,12.02
2019-05-10T02:17:40.647Z,11.99
2019-05-10T02:18:40.641Z,12.09
2019-05-10T02:19:40.639Z,12.09
2019-05-10T02:20:40.634Z,12.07
2019-05-10T02:21:40.638Z,12.03
2019-05-10T02:22:40.623Z,12.07
2019-05-10T02:23:40.618Z,12.07
2019-05-10T02:24:40.615Z,12.03
2019-05-10T02:25:40.611Z,12.07
2019-05-10T02:26:40.605Z,12.07
2019-05-10T02:27:40.602Z,12.09
2019-05-10T02:28:40.598Z,11.94
2019-05-10T02:29:40.592Z,12.06
2019-05-10T02:30:40.587Z,12.03
2019-05-10T02:31:40.583Z,12.02
2019-05-10T02:32:40.588Z,11.95
2019-05-10T02:33:40.578Z,12.02
2019-05-10T02:34:40.567Z,12.02
2019-05-10T02:35:40.567Z,12.10
2019-05-10T02:36:40.571Z,12.09
2019-05-10T02:37:40.557Z,12.10
2019-05-10T02:38:40.555Z,12.13
2019-05-10T02:39:40.556Z,12.15
2019-05-10T02:40:40.543Z,12.21
2019-05-10T02:41:40.538Z,12.21
2019-05-10T02:42:40.567Z,12.20
2019-05-10T02:43:40.541Z,12.18
2019-05-10T02:44:40.528Z,12.21
2019-05-10T02:45:40.521Z,12.24
2019-05-10T02:46:40.516Z,12.24
2019-05-10T02:47:40.512Z,12.22
2019-05-10T02:48:40.507Z,12.21
2019-05-10T02:49:40.506Z,12.21
2019-05-10T02:50:40.498Z,12.24
2019-05-10T02:51:40.493Z,12.22
2019-05-10T02:52:40.489Z,12.20
2019-05-10T02:53:40.488Z,12.15
2019-05-10T02:54:40.485Z,12.18
2019-05-10T02:55:40.474Z,12.15
2019-05-10T02:56:40.473Z,12.00
2019-05-10T02:57:40.467Z,12.02
2019-05-10T02:58:40.470Z,12.02
2019-05-10T02:59:40.462Z,12.00
2019-05-10T03:00:40.452Z,11.97
2019-05-10T03:01:40.451Z,12.00
2019-05-10T03:02:40.443Z,11.99
2019-05-10T03:03:40.444Z,11.97
2019-05-10T03:04:40.439Z,12.00
2019-05-10T03:05:40.432Z,12.00
2019-05-10T03:06:40.428Z,12.03
2019-05-10T03:07:40.422Z,11.97
2019-05-10T03:08:40.416Z,11.94
2019-05-10T03:09:40.412Z,12.00
2019-05-10T03:10:40.408Z,11.95
2019-05-10T03:11:40.403Z,11.94
2019-05-10T03:12:40.402Z,11.95
2019-05-10T03:13:40.395Z,12.00
2019-05-10T03:14:40.395Z,11.99
2019-05-10T03:15:40.385Z,11.97
2019-05-10T03:16:40.379Z,11.97
2019-05-10T03:17:40.377Z,12.07
2019-05-10T03:18:40.374Z,12.09
2019-05-10T03:19:40.376Z,12.06
2019-05-10T03:20:40.365Z,12.09
2019-05-10T03:21:40.356Z,12.03
2019-05-10T03:22:40.353Z,12.12
2019-05-10T03:23:40.349Z,12.10
2019-05-10T03:24:40.344Z,12.07
2019-05-10T03:25:40.339Z,11.99
2019-05-10T03:26:50.306Z,12.03
2019-05-10T03:27:40.332Z,12.02
2019-05-10T03:28:40.332Z,12.00
2019-05-10T03:29:40.322Z,11.97
2019-05-10T03:30:40.316Z,11.97
2019-05-10T03:31:40.342Z,12.00
2019-05-10T03:32:40.308Z,11.99
2019-05-10T03:33:40.307Z,12.00
2019-05-10T03:34:40.299Z,12.04
2019-05-10T03:35:40.293Z,12.04
2019-05-10T03:36:40.290Z,12.06
2019-05-10T03:37:40.287Z,12.10
2019-05-10T03:38:40.279Z,12.09
2019-05-10T03:39:40.277Z,12.07
2019-05-10T03:40:40.271Z,12.15
2019-05-10T03:41:40.270Z,12.06
2019-05-10T03:42:40.285Z,12.10
2019-05-10T03:43:40.257Z,12.09
2019-05-10T03:44:40.255Z,12.06
2019-05-10T03:45:40.251Z,12.06
2019-05-10T03:46:40.251Z,12.09
2019-05-10T03:47:40.244Z,11.99
2019-05-10T03:48:40.242Z,12.03
2019-05-10T03:49:40.236Z,12.12
2019-05-10T03:50:40.227Z,12.20
2019-05-10T03:51:40.223Z,12.09
2019-05-10T03:52:40.217Z,12.07
2019-05-10T03:53:40.214Z,12.09
2019-05-10T03:54:40.209Z,12.17
2019-05-10T03:55:40.203Z,12.10
2019-05-10T03:56:40.203Z,12.04
2019-05-10T03:57:40.195Z,12.17
2019-05-10T03:58:40.191Z,12.10
2019-05-10T03:59:40.184Z,12.20
2019-05-10T04:00:40.182Z,12.24
2019-05-10T04:01:40.196Z,12.24
2019-05-10T04:02:40.177Z,12.24
2019-05-10T04:03:40.185Z,12.25
2019-05-10T04:04:40.165Z,12.29
2019-05-10T04:05:40.174Z,12.35
2019-05-10T04:06:40.164Z,12.31
2019-05-10T04:07:40.150Z,12.36
2019-05-10T04:08:40.145Z,12.32
2019-05-10T04:09:40.143Z,12.31
2019-05-10T04:10:40.155Z,12.39
2019-05-10T04:11:40.135Z,12.39
2019-05-10T04:12:40.130Z,12.43
2019-05-10T04:13:40.126Z,12.40
2019-05-10T04:14:40.119Z,12.42
2019-05-10T04:15:40.117Z,12.42
2019-05-10T04:16:40.113Z,12.45
2019-05-10T04:17:40.107Z,12.45
2019-05-10T04:18:40.104Z,12.37
2019-05-10T04:19:40.217Z,12.45
2019-05-10T04:20:40.094Z,12.37
2019-05-10T04:21:40.092Z,12.40
2019-05-10T04:22:40.111Z,12.49
2019-05-10T04:23:40.081Z,12.49
2019-05-10T04:24:40.088Z,12.54
2019-05-10T04:25:40.072Z,12.60
2019-05-10T04:26:40.068Z,12.58
2019-05-10T04:27:40.062Z,12.54
2019-05-10T04:28:40.064Z,12.62
2019-05-10T04:29:40.078Z,12.50
2019-05-10T04:30:40.050Z,12.64
2019-05-10T04:31:40.055Z,12.60
2019-05-10T04:32:40.038Z,12.67
2019-05-10T04:33:40.038Z,12.73
2019-05-10T04:34:40.033Z,12.65
2019-05-10T04:35:40.028Z,12.70
2019-05-10T04:36:40.029Z,12.61
2019-05-10T04:37:40.021Z,12.65
2019-05-10T04:38:40.014Z,12.70
2019-05-10T04:39:40.013Z,12.65
2019-05-10T04:40:40.009Z,12.67
2019-05-10T04:41:40.002Z,12.68
2019-05-10T04:42:40.004Z,12.75
2019-05-10T04:43:39.993Z,12.72
2019-05-10T04:44:40.005Z,12.75
2019-05-10T04:45:39.986Z,12.73
2019-05-10T04:46:39.986Z,12.75
2019-05-10T04:47:39.979Z,12.68
2019-05-10T04:48:39.973Z,12.78
2019-05-10T04:49:39.966Z,12.83
2019-05-10T04:50:39.965Z,12.79
2019-05-10T04:51:39.959Z,12.87
2019-05-10T04:52:39.954Z,12.80
2019-05-10T04:53:39.951Z,12.90
2019-05-10T04:54:39.947Z,12.97
2019-05-10T04:55:39.941Z,12.95
2019-05-10T04:56:39.937Z,13.04
2019-05-10T04:57:49.994Z,13.11
2019-05-10T04:58:39.930Z,13.09
2019-05-10T04:59:39.925Z,13.15
2019-05-10T05:00:39.924Z,13.05
2019-05-10T05:01:39.916Z,13.08
2019-05-10T05:02:39.916Z,13.11
2019-05-10T05:03:39.908Z,13.15
2019-05-10T05:04:39.909Z,13.16
2019-05-10T05:05:39.898Z,13.11
2019-05-10T05:06:39.895Z,13.19
2019-05-10T05:07:39.899Z,13.30
2019-05-10T05:08:39.908Z,13.28
2019-05-10T05:09:39.892Z,13.25
2019-05-10T05:10:39.888Z,13.27
2019-05-10T05:11:39.876Z,13.31
2019-05-10T05:12:39.873Z,13.41
2019-05-10T05:13:39.867Z,13.52
2019-05-10T05:14:39.873Z,13.47
2019-05-10T05:15:39.915Z,13.57
2019-05-10T05:16:39.865Z,13.57
2019-05-10T05:17:39.851Z,13.60
2019-05-10T05:18:39.850Z,13.60
2019-05-10T05:19:40.965Z,13.67
2019-05-10T05:20:39.853Z,13.71
2019-05-10T05:21:39.837Z,13.72
2019-05-10T05:22:39.833Z,13.72
2019-05-10T05:23:39.827Z,13.75
2019-05-10T05:24:39.825Z,13.81
2019-05-10T05:25:40.645Z,13.90
2019-05-10T05:26:39.818Z,13.85
2019-05-10T05:27:39.814Z,13.86
2019-05-10T05:28:39.809Z,13.86
2019-05-10T05:29:39.806Z,13.95
2019-05-10T05:30:39.807Z,13.95
2019-05-10T05:31:39.800Z,13.99
2019-05-10T05:32:44.659Z,13.97
2019-05-10T05:33:39.792Z,14.03
2019-05-10T05:34:39.794Z,14.12
2019-05-10T05:35:39.821Z,14.22
2019-05-10T05:36:39.781Z,14.40
2019-05-10T05:37:39.782Z,14.40
2019-05-10T05:38:40.504Z,14.41
2019-05-10T05:39:39.769Z,14.40
2019-05-10T05:40:39.768Z,14.55
2019-05-10T05:41:49.479Z,14.59
2019-05-10T05:42:39.758Z,14.78
2019-05-10T05:43:45.355Z,14.81
2019-05-10T05:44:39.753Z,14.88
2019-05-10T05:45:39.750Z,15.07
2019-05-10T05:46:39.801Z,15.09
2019-05-10T05:47:42.272Z,15.33
2019-05-10T05:48:40.719Z,15.49
2019-05-10T05:49:39.738Z,15.73
2019-05-10T05:50:39.740Z,15.90
2019-05-10T05:51:39.730Z,16.04
2019-05-10T05:52:39.741Z,16.47
2019-05-10T05:53:42.218Z,16.46
2019-05-10T05:54:39.724Z,16.53
2019-05-10T05:55:39.719Z,16.61
2019-05-10T05:56:44.443Z,16.41
2019-05-10T05:57:39.714Z,16.43
2019-05-10T05:58:44.688Z,16.65
2019-05-10T05:59:39.706Z,16.60
2019-05-10T06:00:44.535Z,16.75
2019-05-10T06:01:39.709Z,16.81
2019-05-10T06:02:43.940Z,16.71
2019-05-10T06:03:39.698Z,16.76
2019-05-10T06:04:40.735Z,16.99
2019-05-10T06:05:39.700Z,17.15
2019-05-10T06:06:39.695Z,17.23
2019-05-10T06:07:39.691Z,17.30
2019-05-10T06:08:39.692Z,18.07
2019-05-10T06:09:39.679Z,17.95
2019-05-10T06:10:39.696Z,17.83
2019-05-10T06:11:39.684Z,17.94
2019-05-10T06:12:44.490Z,17.95
2019-05-10T06:13:39.682Z,17.74
2019-05-10T06:14:43.358Z,17.67
2019-05-10T06:15:39.676Z,17.70
2019-05-10T06:16:44.783Z,17.64
2019-05-10T06:17:39.677Z,17.64
2019-05-10T06:18:41.763Z,17.34
2019-05-10T06:19:39.667Z,17.24
2019-05-10T06:20:44.501Z,17.20
2019-05-10T06:21:39.668Z,17.06
2019-05-10T06:22:44.016Z,17.16
2019-05-10T06:23:39.661Z,16.99
2019-05-10T06:24:39.662Z,16.97
2019-05-10T06:25:42.446Z,16.81
2019-05-10T06:26:39.656Z,16.68
2019-05-10T06:27:41.251Z,16.64
2019-05-10T06:29:42.904Z,16.58
2019-05-10T06:30:39.649Z,16.56
2019-05-10T06:31:39.652Z,16.53
2019-05-10T06:32:39.645Z,16.41
2019-05-10T06:33:44.838Z,16.36
2019-05-10T06:34:40.256Z,16.09
2019-05-10T06:35:39.647Z,15.95
2019-05-10T06:36:39.697Z,16.01
2019-05-10T06:37:39.634Z,15.70
2019-05-10T06:38:39.643Z,15.79
2019-05-10T06:39:39.637Z,15.90
2019-05-10T06:40:46.753Z,15.91
2019-05-10T06:41:39.632Z,15.91
2019-05-10T06:42:39.628Z,16.12
2019-05-10T06:43:39.625Z,16.15
2019-05-10T06:44:39.626Z,16.29
2019-05-10T06:45:39.626Z,16.41
2019-05-10T06:46:39.645Z,16.35
2019-05-10T06:47:41.865Z,16.56
2019-05-10T06:48:39.619Z,16.65
2019-05-10T06:49:41.705Z,16.66
2019-05-10T06:50:39.619Z,16.66
2019-05-10T06:51:42.873Z,16.60
2019-05-10T06:52:39.619Z,16.75
2019-05-10T06:53:42.244Z,16.93
2019-05-10T06:54:39.749Z,17.15
2019-05-10T06:55:39.623Z,17.51
2019-05-10T06:56:39.608Z,17.44
2019-05-10T06:57:39.604Z,17.54
2019-05-10T06:58:39.603Z,17.42
2019-05-10T06:59:39.601Z,17.65
2019-05-10T07:00:44.691Z,17.72
2019-05-10T07:01:45.862Z,17.94
2019-05-10T07:02:39.601Z,17.89
2019-05-10T07:03:39.598Z,17.89
2019-05-10T07:04:41.133Z,17.74
2019-05-10T07:05:39.596Z,17.86
2019-05-10T07:06:39.590Z,17.89
2019-05-10T07:07:44.595Z,17.68
2019-05-10T07:08:44.163Z,17.71
2019-05-10T07:10:01.601Z,17.72
2019-05-10T07:10:39.591Z,17.70
2019-05-10T07:11:39.586Z,17.71
2019-05-10T07:12:39.622Z,17.72
2019-05-10T07:13:40.478Z,17.89
2019-05-10T07:14:45.515Z,17.65
2019-05-10T07:15:42.173Z,17.57
2019-05-10T07:16:39.584Z,17.56
2019-05-10T07:17:45.195Z,17.54
2019-05-10T07:18:39.581Z,17.48
2019-05-10T07:19:42.051Z,17.27
2019-05-10T07:20:43.027Z,17.22
2019-05-10T07:21:44.193Z,17.15
2019-05-10T07:22:39.575Z,17.22
2019-05-10T07:23:44.931Z,17.20
2019-05-10T07:24:39.574Z,17.19
2019-05-10T07:25:43.893Z,17.24
2019-05-10T07:26:39.573Z,17.22
2019-05-10T07:27:39.568Z,17.14
2019-05-10T07:28:39.572Z,17.11
2019-05-10T07:29:43.269Z,17.04
2019-05-10T07:30:41.499Z,16.97
2019-05-10T07:31:39.563Z,16.84
2019-05-10T07:32:39.577Z,16.79
2019-05-10T07:33:40.250Z,16.89
2019-05-10T07:34:39.559Z,16.75
2019-05-10T07:35:39.633Z,16.79
2019-05-10T07:36:39.555Z,16.81
2019-05-10T07:37:39.556Z,16.87
2019-05-10T07:38:39.560Z,16.90
2019-05-10T07:39:39.557Z,16.84
2019-05-10T07:40:39.552Z,16.83
2019-05-10T07:41:39.571Z,16.83
2019-05-10T07:42:44.916Z,16.79
2019-05-10T07:43:39.548Z,16.83
2019-05-10T07:44:44.715Z,16.87
2019-05-10T07:45:39.547Z,16.79
2019-05-10T07:46:40.243Z,16.76
2019-05-10T07:47:39.543Z,16.83
2019-05-10T07:48:41.137Z,16.79
2019-05-10T07:49:39.538Z,16.84
2019-05-10T07:50:42.253Z,16.57
2019-05-10T07:51:39.537Z,17.52
2019-05-10T07:52:43.655Z,18.35
2019-05-10T07:53:39.534Z,18.62
2019-05-10T07:54:45.397Z,18.28
2019-05-10T07:55:39.531Z,17.97
2019-05-10T07:56:45.807Z,17.98
2019-05-10T07:57:39.530Z,17.76
2019-05-10T07:58:43.163Z,17.70
2019-05-10T07:59:50.302Z,17.57
2019-05-10T08:00:44.578Z,17.65
2019-05-10T08:01:39.530Z,17.76
2019-05-10T08:02:39.525Z,17.71
2019-05-10T08:03:44.246Z,17.82
2019-05-10T08:04:39.537Z,17.74
2019-05-10T08:05:39.536Z,17.98
2019-05-10T08:06:43.822Z,18.29
2019-05-10T08:07:39.521Z,18.60
2019-05-10T08:08:39.524Z,18.80
2019-05-10T08:09:44.710Z,19.27
2019-05-10T08:10:39.628Z,20.03
2019-05-10T08:11:39.520Z,20.25
2019-05-10T08:12:44.295Z,20.51
2019-05-10T08:13:39.592Z,21.35
2019-05-10T08:14:44.330Z,21.88
2019-05-10T08:15:39.526Z,21.80
2019-05-10T08:16:39.523Z,21.70
2019-05-10T08:17:43.376Z,21.33
2019-05-10T08:18:42.164Z,21.37
2019-05-10T08:19:39.531Z,22.08
2019-05-10T08:20:49.497Z,22.80
2019-05-10T08:21:41.818Z,23.37
2019-05-10T08:22:44.456Z,23.20
2019-05-10T08:23:41.057Z,22.76
2019-05-10T08:24:46.489Z,23.02
2019-05-10T08:25:44.028Z,23.02
2019-05-10T08:26:39.535Z,23.03
2019-05-10T08:27:44.023Z,23.80
2019-05-10T08:28:42.233Z,24.69
2019-05-10T08:29:39.543Z,25.60
2019-05-10T08:30:42.739Z,26.10
2019-05-10T08:31:40.879Z,26.25
2019-05-10T08:32:39.554Z,26.36
2019-05-10T08:33:46.380Z,27.20
2019-05-10T08:34:45.001Z,27.07
2019-05-10T08:35:43.384Z,26.92
2019-05-10T08:36:45.832Z,26.07
2019-05-10T08:37:39.571Z,24.54
2019-05-10T08:38:44.782Z,23.91
2019-05-10T08:39:45.296Z,23.98
2019-05-10T08:40:39.587Z,23.93
2019-05-10T08:41:39.593Z,23.87
2019-05-10T08:42:45.321Z,23.43
2019-05-10T08:43:40.811Z,22.22
2019-05-10T08:44:39.600Z,22.08
2019-05-10T08:45:45.164Z,21.52
2019-05-10T08:46:41.426Z,21.21
2019-05-10T08:47:39.614Z,21.64
2019-05-10T08:48:46.752Z,22.07
2019-05-10T08:49:52.275Z,22.63
2019-05-10T08:50:52.739Z,22.93
2019-05-10T08:51:47.175Z,22.45
2019-05-10T08:52:42.112Z,22.08
2019-05-10T08:53:41.902Z,22.04
2019-05-10T08:54:42.144Z,22.35
2019-05-10T08:55:39.644Z,22.94
2019-05-10T08:56:43.572Z,23.27
2019-05-10T08:57:44.244Z,22.28
2019-05-10T08:58:42.028Z,21.62
2019-05-10T08:59:39.652Z,21.12
2019-05-10T09:00:53.340Z,20.67
2019-05-10T09:01:48.958Z,20.39
2019-05-10T09:02:39.662Z,20.11
2019-05-10T09:03:41.787Z,20.00
2019-05-10T09:04:44.634Z,20.14
2019-05-10T09:05:40.148Z,19.99
2019-05-10T09:06:41.880Z,20.00
2019-05-10T09:07:39.673Z,20.00
2019-05-10T09:08:39.676Z,20.02
2019-05-10T09:09:45.549Z,19.89
2019-05-10T09:10:41.991Z,20.06
2019-05-10T09:11:44.056Z,20.06
2019-05-10T09:12:44.204Z,19.95
2019-05-10T09:13:42.512Z,19.69
2019-05-10T09:14:39.688Z,19.81
2019-05-10T09:15:43.154Z,19.94
2019-05-10T09:16:43.702Z,20.02
2019-05-10T09:17:39.696Z,20.00
2019-05-10T09:18:46.276Z,20.06
2019-05-10T09:19:41.793Z,20.10
2019-05-10T09:20:41.963Z,20.19
2019-05-10T09:21:41.277Z,20.34
2019-05-10T09:22:39.699Z,20.36
2019-05-10T09:23:39.702Z,20.26
2019-05-10T09:24:43.221Z,20.18
2019-05-10T09:25:42.395Z,20.07
2019-05-10T09:26:41.780Z,20.00
2019-05-10T09:27:39.707Z,20.06
2019-05-10T09:28:41.950Z,19.92
2019-05-10T09:29:39.709Z,19.74
2019-05-10T09:30:54.246Z,19.70
2019-05-10T09:31:45.940Z,19.81
2019-05-10T09:32:40.064Z,19.58
2019-05-10T09:33:43.366Z,19.64
2019-05-10T09:34:39.716Z,19.64
2019-05-10T09:35:46.928Z,19.85
2019-05-10T09:36:42.937Z,19.89
2019-05-10T09:37:41.892Z,20.06
2019-05-10T09:38:43.433Z,20.19
2019-05-10T09:39:39.721Z,20.37
2019-05-10T09:40:50.211Z,20.21
2019-05-10T09:41:39.727Z,19.86
2019-05-10T09:42:43.038Z,19.89
2019-05-10T09:43:47.989Z,20.13
2019-05-10T09:44:39.730Z,20.26
2019-05-10T09:45:42.172Z,20.32
2019-05-10T09:46:42.015Z,20.31
2019-05-10T09:47:39.730Z,20.41
2019-05-10T09:48:39.730Z,20.32
2019-05-10T09:49:44.269Z,20.26
2019-05-10T09:50:44.244Z,20.02
2019-05-10T09:51:42.088Z,19.64
2019-05-10T09:52:39.733Z,19.44
2019-05-10T09:53:39.735Z,19.15
2019-05-10T09:54:39.733Z,18.86
2019-05-10T09:55:39.735Z,18.68
2019-05-10T09:56:44.329Z,18.40
2019-05-10T09:57:39.739Z,18.19
2019-05-10T09:58:39.736Z,18.01
2019-05-10T09:59:39.738Z,17.85
2019-05-10T10:00:39.741Z,17.68
2019-05-10T10:01:39.738Z,17.63
2019-05-10T10:02:40.703Z,17.60
2019-05-10T10:03:43.265Z,17.48
2019-05-10T10:04:39.739Z,17.38
2019-05-10T10:05:40.277Z,17.27
2019-05-10T10:06:41.906Z,17.14
2019-05-10T10:07:39.737Z,17.12
2019-05-10T10:08:43.583Z,17.05
2019-05-10T10:09:44.664Z,16.99
2019-05-10T10:10:39.743Z,16.96
2019-05-10T10:11:39.740Z,16.87
2019-05-10T10:12:39.739Z,16.86
2019-05-10T10:13:43.525Z,16.86
2019-05-10T10:14:43.309Z,16.81
2019-05-10T10:15:39.739Z,16.83
2019-05-10T10:16:39.736Z,16.74
2019-05-10T10:17:42.298Z,16.78
2019-05-10T10:18:39.734Z,16.75
2019-05-10T10:19:40.703Z,16.84
2019-05-10T10:20:43.531Z,16.96
2019-05-10T10:21:39.729Z,16.91
2019-05-10T10:22:43.335Z,16.96
2019-05-10T10:23:39.730Z,17.15
2019-05-10T10:24:41.145Z,17.19
2019-05-10T10:25:40.549Z,17.29
2019-05-10T10:26:39.725Z,17.22
2019-05-10T10:27:39.768Z,17.26
2019-05-10T10:28:39.918Z,17.19
2019-05-10T10:29:39.726Z,17.30
2019-05-10T10:30:39.723Z,17.29
2019-05-10T10:31:51.185Z,17.46
2019-05-10T10:32:39.729Z,17.52
2019-05-10T10:33:42.800Z,17.54
2019-05-10T10:34:43.059Z,17.70
2019-05-10T10:35:39.723Z,17.89
2019-05-10T10:36:43.740Z,18.10
2019-05-10T10:37:39.725Z,18.16
2019-05-10T10:38:45.315Z,18.19
2019-05-10T10:39:39.715Z,18.31
2019-05-10T10:40:44.476Z,18.20
2019-05-10T10:41:39.715Z,18.03
2019-05-10T10:42:39.715Z,18.15
2019-05-10T10:43:39.707Z,18.15
2019-05-10T10:44:39.711Z,17.76
2019-05-10T10:45:39.713Z,17.64
2019-05-10T10:46:39.712Z,17.22
2019-05-10T10:47:39.710Z,16.99
2019-05-10T10:48:43.761Z,16.79
2019-05-10T10:49:39.709Z,16.75
2019-05-10T10:50:44.288Z,16.76
2019-05-10T10:51:39.725Z,16.78
2019-05-10T10:52:39.708Z,16.97
2019-05-10T10:53:39.707Z,16.99
2019-05-10T10:54:40.046Z,17.01
2019-05-10T10:55:40.360Z,17.02
2019-05-10T10:56:39.702Z,17.20
2019-05-10T10:57:39.702Z,17.27
2019-05-10T10:58:39.700Z,17.44
2019-05-10T10:59:39.698Z,17.41
2019-05-10T11:00:39.698Z,17.48
2019-05-10T11:01:49.895Z,17.57
2019-05-10T11:02:41.621Z,17.79
2019-05-10T11:03:39.695Z,17.94
2019-05-10T11:04:40.377Z,18.01
2019-05-10T11:05:39.694Z,17.97
2019-05-10T11:06:39.696Z,17.97
2019-05-10T11:07:44.299Z,17.94
2019-05-10T11:08:41.309Z,17.85
2019-05-10T11:09:41.012Z,17.83
2019-05-10T11:10:40.545Z,17.80
2019-05-10T11:11:44.431Z,17.59
2019-05-10T11:12:41.272Z,17.52
2019-05-10T11:13:45.435Z,17.49
2019-05-10T11:14:43.926Z,17.41
2019-05-10T11:15:41.881Z,17.26
2019-05-10T11:16:41.265Z,17.20
2019-05-10T11:17:40.775Z,17.27
2019-05-10T11:18:41.856Z,17.54
2019-05-10T11:19:41.670Z,17.60
2019-05-10T11:20:41.913Z,17.63
2019-05-10T11:21:41.496Z,17.65
2019-05-10T11:22:41.876Z,17.67
2019-05-10T11:23:41.898Z,17.57
2019-05-10T11:24:39.675Z,17.52
2019-05-10T11:25:44.316Z,17.65
2019-05-10T11:26:40.954Z,17.57
2019-05-10T11:27:41.578Z,17.74
2019-05-10T11:28:43.831Z,17.83
2019-05-10T11:29:41.646Z,17.87
2019-05-10T11:30:39.671Z,17.72
2019-05-10T11:31:41.358Z,17.71
2019-05-10T11:32:41.848Z,17.71
2019-05-10T11:33:41.450Z,17.68
2019-05-10T11:34:39.663Z,17.72
2019-05-10T11:35:41.714Z,17.85
2019-05-10T11:36:45.269Z,17.83
2019-05-10T11:37:42.108Z,17.89
2019-05-10T11:38:41.771Z,18.01
2019-05-10T11:39:45.212Z,17.98
2019-05-10T11:40:41.962Z,18.15
2019-05-10T11:41:39.656Z,18.13
2019-05-10T11:42:43.787Z,18.13
2019-05-10T11:43:41.834Z,18.20
2019-05-10T11:44:41.586Z,18.31
2019-05-10T11:45:43.685Z,18.35
2019-05-10T11:46:41.645Z,18.15
2019-05-10T11:47:40.945Z,18.15
2019-05-10T11:48:41.931Z,18.15
2019-05-10T11:49:40.617Z,18.33
2019-05-10T11:50:41.044Z,18.50
2019-05-10T11:51:41.317Z,18.41
2019-05-10T11:52:40.786Z,18.53
2019-05-10T11:53:41.433Z,18.60
2019-05-10T11:54:41.719Z,18.65
2019-05-10T11:55:41.207Z,18.70
2019-05-10T11:56:41.038Z,18.68
2019-05-10T11:57:43.926Z,18.66
2019-05-10T11:58:49.043Z,18.89
2019-05-10T11:59:41.580Z,19.09
2019-05-10T12:00:41.351Z,19.26
2019-05-10T12:01:41.797Z,19.30
2019-05-10T12:03:00.930Z,19.41
2019-05-10T12:03:42.404Z,19.37
2019-05-10T12:04:43.245Z,19.22
2019-05-10T12:05:42.268Z,19.00
2019-05-10T12:06:41.279Z,19.09
2019-05-10T12:07:45.503Z,19.09
2019-05-10T12:08:41.852Z,19.12
2019-05-10T12:09:42.588Z,19.21
2019-05-10T12:11:51.156Z,18.90
2019-05-10T12:13:39.632Z,18.92
2019-05-10T12:14:43.772Z,18.75
2019-05-10T12:15:42.964Z,18.81
2019-05-10T12:16:41.964Z,18.78
2019-05-10T12:17:46.342Z,18.74
2019-05-10T12:18:46.520Z,18.63
2019-05-10T12:19:45.446Z,18.71
2019-05-10T12:20:54.082Z,18.66
2019-05-10T12:21:39.626Z,18.63
2019-05-10T12:22:46.374Z,18.52
2019-05-10T12:23:47.275Z,18.53
2019-05-10T12:24:53.782Z,18.56
2019-05-10T12:26:05.804Z,18.65
2019-05-10T12:26:27.644Z,18.90
2019-05-10T12:26:58.896Z,19.04
2019-05-10T12:27:45.209Z,18.68
2019-05-10T12:28:40.763Z,18.52
2019-05-10T12:29:39.620Z,18.53
2019-05-10T12:30:40.893Z,18.47
2019-05-10T12:31:41.470Z,18.52
2019-05-10T12:32:54.998Z,18.63
2019-05-10T12:33:42.912Z,18.75
2019-05-10T12:34:40.995Z,18.84
2019-05-10T12:35:46.347Z,18.62
2019-05-10T12:36:41.200Z,18.63
2019-05-10T12:37:46.166Z,18.62
2019-05-10T12:38:39.613Z,18.49
2019-05-10T12:39:39.614Z,18.49
2019-05-10T12:40:41.335Z,18.40
2019-05-10T12:41:44.906Z,18.16
2019-05-10T12:42:41.768Z,18.08
2019-05-10T12:43:40.916Z,17.97
2019-05-10T12:44:43.990Z,17.74
2019-05-10T12:45:41.644Z,17.76
2019-05-10T12:46:42.103Z,17.60
2019-05-10T12:47:41.458Z,17.46
2019-05-10T12:48:39.609Z,17.49
2019-05-10T12:49:40.923Z,17.23
2019-05-10T12:50:39.606Z,17.26
2019-05-10T12:51:40.875Z,17.30
2019-05-10T12:52:39.609Z,17.31
2019-05-10T12:53:44.561Z,17.22
2019-05-10T12:54:41.424Z,17.27